sensor_id;sensor_type;location;lat;lon;timestamp;P1;durP1;ratioP1;P2;durP2;ratioP2
5821;SDS011;2937;48.562;8.022;2024-01-10T00:00:14;48.20;;;23.50;;
5821;SDS011;2937;48.562;8.022;2024-01-10T00:05:08;52.50;;;24.07;;
5821;SDS011;2937;48.562;8.022;2024-01-10T00:10:01;43.40;;;21.67;;
5821;SDS011;2937;48.562;8.022;2024-01-10T00:14:54;45.30;;;21.97;;
5821;SDS011;2937;48.562;8.022;2024-01-10T00:19:46;40.97;;;19.70;;
5821;SDS011;2937;48.562;8.022;2024-01-10T00:24:40;38.67;;;19.93;;
5821;SDS011;2937;48.562;8.022;2024-01-10T00:29:33;42.73;;;20.87;;
5821;SDS011;2937;48.562;8.022;2024-01-10T00:34:26;43.97;;;21.77;;
5821;SDS011;2937;48.562;8.022;2024-01-10T00:39:18;36.80;;;19.83;;
5821;SDS011;2937;48.562;8.022;2024-01-10T00:44:12;40.07;;;20.20;;
5821;SDS011;2937;48.562;8.022;2024-01-10T00:49:05;41.37;;;20.33;;
5821;SDS011;2937;48.562;8.022;2024-01-10T00:53:58;39.00;;;18.87;;
5821;SDS011;2937;48.562;8.022;2024-01-10T00:58:50;36.30;;;18.70;;
5821;SDS011;2937;48.562;8.022;2024-01-10T01:03:48;40.47;;;19.10;;
5821;SDS011;2937;48.562;8.022;2024-01-10T01:08:41;39.90;;;19.50;;
5821;SDS011;2937;48.562;8.022;2024-01-10T01:13:33;39.30;;;19.53;;
5821;SDS011;2937;48.562;8.022;2024-01-10T01:18:26;35.40;;;18.57;;
5821;SDS011;2937;48.562;8.022;2024-01-10T01:23:20;35.63;;;18.57;;
5821;SDS011;2937;48.562;8.022;2024-01-10T01:28:29;36.63;;;18.47;;
5821;SDS011;2937;48.562;8.022;2024-01-10T01:33:21;35.37;;;17.37;;
5821;SDS011;2937;48.562;8.022;2024-01-10T01:38:14;35.57;;;18.50;;
5821;SDS011;2937;48.562;8.022;2024-01-10T01:43:19;40.97;;;18.93;;
5821;SDS011;2937;48.562;8.022;2024-01-10T01:48:12;37.63;;;16.90;;
5821;SDS011;2937;48.562;8.022;2024-01-10T01:53:05;33.77;;;16.70;;
5821;SDS011;2937;48.562;8.022;2024-01-10T01:57:57;35.87;;;17.43;;
5821;SDS011;2937;48.562;8.022;2024-01-10T02:02:51;36.57;;;17.07;;
5821;SDS011;2937;48.562;8.022;2024-01-10T02:07:45;45.10;;;17.17;;
5821;SDS011;2937;48.562;8.022;2024-01-10T02:12:37;37.27;;;16.77;;
5821;SDS011;2937;48.562;8.022;2024-01-10T02:17:30;34.63;;;17.10;;
5821;SDS011;2937;48.562;8.022;2024-01-10T02:22:24;30.73;;;16.07;;
5821;SDS011;2937;48.562;8.022;2024-01-10T02:27:17;34.17;;;17.40;;
5821;SDS011;2937;48.562;8.022;2024-01-10T02:32:10;29.07;;;15.70;;
5821;SDS011;2937;48.562;8.022;2024-01-10T02:37:03;30.37;;;16.03;;
5821;SDS011;2937;48.562;8.022;2024-01-10T02:41:56;30.67;;;14.87;;
5821;SDS011;2937;48.562;8.022;2024-01-10T02:46:50;29.67;;;15.60;;
5821;SDS011;2937;48.562;8.022;2024-01-10T02:51:43;35.13;;;17.50;;
5821;SDS011;2937;48.562;8.022;2024-01-10T02:56:35;27.27;;;14.87;;
5821;SDS011;2937;48.562;8.022;2024-01-10T03:01:28;29.50;;;15.37;;
5821;SDS011;2937;48.562;8.022;2024-01-10T03:06:22;25.77;;;14.37;;
5821;SDS011;2937;48.562;8.022;2024-01-10T03:11:15;24.20;;;13.77;;
5821;SDS011;2937;48.562;8.022;2024-01-10T03:16:07;29.17;;;14.83;;
5821;SDS011;2937;48.562;8.022;2024-01-10T03:21:00;25.80;;;13.60;;
5821;SDS011;2937;48.562;8.022;2024-01-10T03:25:54;25.90;;;14.20;;
5821;SDS011;2937;48.562;8.022;2024-01-10T03:30:48;26.43;;;12.30;;
5821;SDS011;2937;48.562;8.022;2024-01-10T03:35:40;28.10;;;14.40;;
5821;SDS011;2937;48.562;8.022;2024-01-10T03:40:33;29.53;;;14.63;;
5821;SDS011;2937;48.562;8.022;2024-01-10T03:45:27;28.20;;;13.50;;
5821;SDS011;2937;48.562;8.022;2024-01-10T03:50:21;27.80;;;14.13;;
5821;SDS011;2937;48.562;8.022;2024-01-10T03:55:13;30.27;;;15.47;;
5821;SDS011;2937;48.562;8.022;2024-01-10T04:00:07;27.60;;;14.10;;
5821;SDS011;2937;48.562;8.022;2024-01-10T04:05:01;30.73;;;15.23;;
5821;SDS011;2937;48.562;8.022;2024-01-10T04:09:54;32.90;;;15.53;;
5821;SDS011;2937;48.562;8.022;2024-01-10T04:14:46;30.47;;;14.63;;
5821;SDS011;2937;48.562;8.022;2024-01-10T04:19:39;31.30;;;15.37;;
5821;SDS011;2937;48.562;8.022;2024-01-10T04:24:33;30.17;;;15.30;;
5821;SDS011;2937;48.562;8.022;2024-01-10T04:29:25;30.13;;;15.90;;
5821;SDS011;2937;48.562;8.022;2024-01-10T04:34:18;30.80;;;14.67;;
5821;SDS011;2937;48.562;8.022;2024-01-10T04:39:11;33.83;;;16.60;;
5821;SDS011;2937;48.562;8.022;2024-01-10T04:44:05;34.33;;;15.77;;
5821;SDS011;2937;48.562;8.022;2024-01-10T04:48:58;31.87;;;15.03;;
5821;SDS011;2937;48.562;8.022;2024-01-10T04:53:51;31.13;;;15.17;;
5821;SDS011;2937;48.562;8.022;2024-01-10T04:58:43;31.27;;;14.20;;
5821;SDS011;2937;48.562;8.022;2024-01-10T05:03:39;30.10;;;15.10;;
5821;SDS011;2937;48.562;8.022;2024-01-10T05:08:31;32.20;;;15.40;;
5821;SDS011;2937;48.562;8.022;2024-01-10T05:13:24;29.50;;;15.43;;
5821;SDS011;2937;48.562;8.022;2024-01-10T05:18:17;28.87;;;15.10;;
5821;SDS011;2937;48.562;8.022;2024-01-10T05:23:11;30.07;;;14.90;;
5821;SDS011;2937;48.562;8.022;2024-01-10T05:28:04;36.77;;;16.67;;
5821;SDS011;2937;48.562;8.022;2024-01-10T05:32:57;33.07;;;15.47;;
5821;SDS011;2937;48.562;8.022;2024-01-10T05:37:51;40.87;;;16.83;;
5821;SDS011;2937;48.562;8.022;2024-01-10T05:42:45;31.30;;;15.47;;
5821;SDS011;2937;48.562;8.022;2024-01-10T05:47:37;36.60;;;17.30;;
5821;SDS011;2937;48.562;8.022;2024-01-10T05:52:30;35.77;;;17.27;;
5821;SDS011;2937;48.562;8.022;2024-01-10T05:57:23;35.97;;;16.73;;
5821;SDS011;2937;48.562;8.022;2024-01-10T06:02:17;37.23;;;16.07;;
5821;SDS011;2937;48.562;8.022;2024-01-10T06:07:10;34.37;;;17.60;;
5821;SDS011;2937;48.562;8.022;2024-01-10T06:12:03;34.43;;;16.43;;
5821;SDS011;2937;48.562;8.022;2024-01-10T06:16:55;36.83;;;16.57;;
5821;SDS011;2937;48.562;8.022;2024-01-10T06:21:52;34.07;;;18.07;;
5821;SDS011;2937;48.562;8.022;2024-01-10T06:26:45;40.33;;;18.47;;
5821;SDS011;2937;48.562;8.022;2024-01-10T06:31:37;31.37;;;16.30;;
5821;SDS011;2937;48.562;8.022;2024-01-10T06:36:30;32.40;;;15.73;;
5821;SDS011;2937;48.562;8.022;2024-01-10T06:41:24;32.47;;;17.00;;
5821;SDS011;2937;48.562;8.022;2024-01-10T06:46:16;32.60;;;15.80;;
5821;SDS011;2937;48.562;8.022;2024-01-10T06:51:09;46.07;;;22.70;;
5821;SDS011;2937;48.562;8.022;2024-01-10T06:56:03;38.80;;;17.03;;
5821;SDS011;2937;48.562;8.022;2024-01-10T07:00:57;33.03;;;16.30;;
5821;SDS011;2937;48.562;8.022;2024-01-10T07:05:51;43.97;;;17.60;;
5821;SDS011;2937;48.562;8.022;2024-01-10T07:10:44;43.00;;;17.60;;
5821;SDS011;2937;48.562;8.022;2024-01-10T07:15:37;39.63;;;17.23;;
5821;SDS011;2937;48.562;8.022;2024-01-10T07:20:31;34.87;;;16.80;;
5821;SDS011;2937;48.562;8.022;2024-01-10T07:25:24;48.73;;;19.93;;
5821;SDS011;2937;48.562;8.022;2024-01-10T07:30:17;39.23;;;18.30;;
5821;SDS011;2937;48.562;8.022;2024-01-10T07:35:10;43.70;;;19.80;;
5821;SDS011;2937;48.562;8.022;2024-01-10T07:40:04;42.43;;;18.50;;
5821;SDS011;2937;48.562;8.022;2024-01-10T07:44:58;37.90;;;19.20;;
5821;SDS011;2937;48.562;8.022;2024-01-10T07:49:50;47.53;;;20.50;;
5821;SDS011;2937;48.562;8.022;2024-01-10T07:54:43;44.00;;;18.67;;
5821;SDS011;2937;48.562;8.022;2024-01-10T07:59:37;48.60;;;21.27;;
5821;SDS011;2937;48.562;8.022;2024-01-10T08:04:30;41.40;;;19.63;;
5821;SDS011;2937;48.562;8.022;2024-01-10T08:09:22;47.20;;;20.37;;
5821;SDS011;2937;48.562;8.022;2024-01-10T08:14:15;45.63;;;23.17;;
5821;SDS011;2937;48.562;8.022;2024-01-10T08:19:10;75.70;;;33.50;;
5821;SDS011;2937;48.562;8.022;2024-01-10T08:24:03;59.03;;;28.47;;
5821;SDS011;2937;48.562;8.022;2024-01-10T08:28:56;60.67;;;28.37;;
5821;SDS011;2937;48.562;8.022;2024-01-10T08:33:49;59.17;;;29.43;;
5821;SDS011;2937;48.562;8.022;2024-01-10T08:38:44;58.37;;;28.20;;
5821;SDS011;2937;48.562;8.022;2024-01-10T08:43:37;70.00;;;32.13;;
5821;SDS011;2937;48.562;8.022;2024-01-10T08:48:30;55.20;;;30.67;;
5821;SDS011;2937;48.562;8.022;2024-01-10T08:53:23;65.97;;;33.73;;
5821;SDS011;2937;48.562;8.022;2024-01-10T08:58:17;56.37;;;31.50;;
5821;SDS011;2937;48.562;8.022;2024-01-10T09:03:10;58.20;;;31.60;;
5821;SDS011;2937;48.562;8.022;2024-01-10T09:08:03;49.57;;;27.67;;
5821;SDS011;2937;48.562;8.022;2024-01-10T09:12:57;62.40;;;32.47;;
5821;SDS011;2937;48.562;8.022;2024-01-10T09:17:52;54.90;;;31.10;;
5821;SDS011;2937;48.562;8.022;2024-01-10T09:22:46;45.13;;;24.50;;
5821;SDS011;2937;48.562;8.022;2024-01-10T09:27:38;46.70;;;25.57;;
5821;SDS011;2937;48.562;8.022;2024-01-10T09:32:32;47.80;;;24.93;;
5821;SDS011;2937;48.562;8.022;2024-01-10T09:37:27;39.87;;;22.77;;
5821;SDS011;2937;48.562;8.022;2024-01-10T09:42:20;35.83;;;21.80;;
5821;SDS011;2937;48.562;8.022;2024-01-10T09:47:16;38.77;;;22.10;;
5821;SDS011;2937;48.562;8.022;2024-01-10T09:52:10;32.17;;;21.30;;
5821;SDS011;2937;48.562;8.022;2024-01-10T09:57:04;36.40;;;20.77;;
5821;SDS011;2937;48.562;8.022;2024-01-10T10:01:57;36.80;;;22.30;;
5821;SDS011;2937;48.562;8.022;2024-01-10T10:06:57;33.37;;;21.00;;
5821;SDS011;2937;48.562;8.022;2024-01-10T10:11:52;65.57;;;35.53;;
5821;SDS011;2937;48.562;8.022;2024-01-10T10:16:46;36.90;;;22.83;;
5821;SDS011;2937;48.562;8.022;2024-01-10T10:21:39;33.10;;;19.70;;
5821;SDS011;2937;48.562;8.022;2024-01-10T10:26:33;35.97;;;20.77;;
5821;SDS011;2937;48.562;8.022;2024-01-10T10:31:26;36.27;;;21.23;;
5821;SDS011;2937;48.562;8.022;2024-01-10T10:36:21;43.23;;;20.60;;
5821;SDS011;2937;48.562;8.022;2024-01-10T10:41:14;37.07;;;20.80;;
5821;SDS011;2937;48.562;8.022;2024-01-10T10:46:07;36.00;;;20.53;;
5821;SDS011;2937;48.562;8.022;2024-01-10T10:51:04;35.93;;;21.97;;
5821;SDS011;2937;48.562;8.022;2024-01-10T10:55:59;34.73;;;20.30;;
5821;SDS011;2937;48.562;8.022;2024-01-10T11:00:52;40.10;;;23.90;;
5821;SDS011;2937;48.562;8.022;2024-01-10T11:05:45;31.27;;;18.87;;
5821;SDS011;2937;48.562;8.022;2024-01-10T11:10:39;29.27;;;18.10;;
5821;SDS011;2937;48.562;8.022;2024-01-10T11:15:42;34.40;;;20.20;;
5821;SDS011;2937;48.562;8.022;2024-01-10T11:20:47;32.33;;;20.20;;
5821;SDS011;2937;48.562;8.022;2024-01-10T11:25:42;29.70;;;17.60;;
5821;SDS011;2937;48.562;8.022;2024-01-10T11:30:36;33.97;;;20.20;;
5821;SDS011;2937;48.562;8.022;2024-01-10T11:35:30;29.83;;;18.43;;
5821;SDS011;2937;48.562;8.022;2024-01-10T11:40:45;34.30;;;20.10;;
5821;SDS011;2937;48.562;8.022;2024-01-10T11:45:37;30.57;;;19.50;;
5821;SDS011;2937;48.562;8.022;2024-01-10T11:50:30;31.37;;;19.00;;
5821;SDS011;2937;48.562;8.022;2024-01-10T12:00:31;33.70;;;21.03;;
5821;SDS011;2937;48.562;8.022;2024-01-10T12:05:25;30.50;;;19.40;;
5821;SDS011;2937;48.562;8.022;2024-01-10T12:10:17;34.27;;;19.10;;
5821;SDS011;2937;48.562;8.022;2024-01-10T12:15:10;33.70;;;19.07;;
5821;SDS011;2937;48.562;8.022;2024-01-10T12:20:04;34.43;;;19.50;;
5821;SDS011;2937;48.562;8.022;2024-01-10T12:25:03;37.20;;;19.63;;
5821;SDS011;2937;48.562;8.022;2024-01-10T12:29:56;33.97;;;19.57;;
5821;SDS011;2937;48.562;8.022;2024-01-10T12:34:53;30.40;;;19.23;;
5821;SDS011;2937;48.562;8.022;2024-01-10T12:39:46;34.83;;;20.47;;
5821;SDS011;2937;48.562;8.022;2024-01-10T12:44:44;35.00;;;20.13;;
5821;SDS011;2937;48.562;8.022;2024-01-10T12:49:38;34.77;;;19.70;;
5821;SDS011;2937;48.562;8.022;2024-01-10T12:54:31;30.43;;;19.90;;
5821;SDS011;2937;48.562;8.022;2024-01-10T12:59:24;31.30;;;19.37;;
5821;SDS011;2937;48.562;8.022;2024-01-10T13:04:18;33.63;;;21.17;;
5821;SDS011;2937;48.562;8.022;2024-01-10T13:09:11;37.90;;;21.60;;
5821;SDS011;2937;48.562;8.022;2024-01-10T13:14:04;36.13;;;20.67;;
5821;SDS011;2937;48.562;8.022;2024-01-10T13:18:57;34.40;;;20.17;;
5821;SDS011;2937;48.562;8.022;2024-01-10T13:23:52;34.17;;;19.60;;
5821;SDS011;2937;48.562;8.022;2024-01-10T13:28:45;36.70;;;21.30;;
5821;SDS011;2937;48.562;8.022;2024-01-10T13:33:37;35.70;;;21.17;;
5821;SDS011;2937;48.562;8.022;2024-01-10T13:38:37;34.30;;;20.90;;
5821;SDS011;2937;48.562;8.022;2024-01-10T13:43:31;38.33;;;21.30;;
5821;SDS011;2937;48.562;8.022;2024-01-10T13:48:24;32.07;;;20.20;;
5821;SDS011;2937;48.562;8.022;2024-01-10T13:53:17;37.43;;;20.90;;
5821;SDS011;2937;48.562;8.022;2024-01-10T13:58:10;33.23;;;19.23;;
5821;SDS011;2937;48.562;8.022;2024-01-10T14:03:04;31.47;;;19.43;;
5821;SDS011;2937;48.562;8.022;2024-01-10T14:07:57;40.37;;;24.47;;
5821;SDS011;2937;48.562;8.022;2024-01-10T14:12:50;36.00;;;20.93;;
5821;SDS011;2937;48.562;8.022;2024-01-10T14:17:43;33.50;;;19.10;;
5821;SDS011;2937;48.562;8.022;2024-01-10T14:22:37;38.20;;;21.77;;
5821;SDS011;2937;48.562;8.022;2024-01-10T14:27:30;34.33;;;19.07;;
5821;SDS011;2937;48.562;8.022;2024-01-10T14:32:22;38.67;;;20.43;;
5821;SDS011;2937;48.562;8.022;2024-01-10T14:37:15;36.37;;;20.80;;
5821;SDS011;2937;48.562;8.022;2024-01-10T14:42:09;36.43;;;20.77;;
5821;SDS011;2937;48.562;8.022;2024-01-10T14:47:03;35.57;;;21.23;;
5821;SDS011;2937;48.562;8.022;2024-01-10T14:52:02;39.93;;;22.03;;
5821;SDS011;2937;48.562;8.022;2024-01-10T14:56:55;33.97;;;20.07;;
5821;SDS011;2937;48.562;8.022;2024-01-10T15:01:51;43.63;;;21.33;;
5821;SDS011;2937;48.562;8.022;2024-01-10T15:06:44;37.03;;;20.63;;
5821;SDS011;2937;48.562;8.022;2024-01-10T15:11:38;39.00;;;21.67;;
5821;SDS011;2937;48.562;8.022;2024-01-10T15:16:30;41.97;;;21.97;;
5821;SDS011;2937;48.562;8.022;2024-01-10T15:21:24;43.67;;;25.00;;
5821;SDS011;2937;48.562;8.022;2024-01-10T15:26:17;53.33;;;26.67;;
5821;SDS011;2937;48.562;8.022;2024-01-10T15:31:13;45.73;;;24.70;;
5821;SDS011;2937;48.562;8.022;2024-01-10T15:36:06;48.10;;;24.77;;
5821;SDS011;2937;48.562;8.022;2024-01-10T15:41:01;40.43;;;21.33;;
5821;SDS011;2937;48.562;8.022;2024-01-10T15:45:54;45.70;;;21.93;;
5821;SDS011;2937;48.562;8.022;2024-01-10T15:50:46;44.20;;;22.37;;
5821;SDS011;2937;48.562;8.022;2024-01-10T15:55:39;46.37;;;23.03;;
5821;SDS011;2937;48.562;8.022;2024-01-10T16:00:33;50.27;;;24.93;;
5821;SDS011;2937;48.562;8.022;2024-01-10T16:05:26;46.37;;;24.00;;
5821;SDS011;2937;48.562;8.022;2024-01-10T16:10:18;75.47;;;33.33;;
5821;SDS011;2937;48.562;8.022;2024-01-10T16:15:11;66.40;;;31.00;;
5821;SDS011;2937;48.562;8.022;2024-01-10T16:20:07;51.03;;;25.07;;
5821;SDS011;2937;48.562;8.022;2024-01-10T16:25:00;55.83;;;30.57;;
5821;SDS011;2937;48.562;8.022;2024-01-10T16:29:52;46.53;;;24.37;;
5821;SDS011;2937;48.562;8.022;2024-01-10T16:34:45;50.23;;;24.97;;
5821;SDS011;2937;48.562;8.022;2024-01-10T16:39:40;58.30;;;28.70;;
5821;SDS011;2937;48.562;8.022;2024-01-10T16:44:32;70.00;;;31.87;;
5821;SDS011;2937;48.562;8.022;2024-01-10T16:49:25;63.37;;;29.70;;
5821;SDS011;2937;48.562;8.022;2024-01-10T16:54:18;63.23;;;31.40;;
5821;SDS011;2937;48.562;8.022;2024-01-10T16:59:12;68.07;;;34.80;;
5821;SDS011;2937;48.562;8.022;2024-01-10T17:04:04;67.00;;;33.07;;
5821;SDS011;2937;48.562;8.022;2024-01-10T17:08:57;55.70;;;27.37;;
5821;SDS011;2937;48.562;8.022;2024-01-10T17:13:51;48.77;;;24.67;;
5821;SDS011;2937;48.562;8.022;2024-01-10T17:18:45;45.87;;;24.23;;
5821;SDS011;2937;48.562;8.022;2024-01-10T17:23:38;43.60;;;21.70;;
5821;SDS011;2937;48.562;8.022;2024-01-10T17:28:31;44.53;;;22.53;;
5821;SDS011;2937;48.562;8.022;2024-01-10T17:33:24;53.20;;;25.60;;
5821;SDS011;2937;48.562;8.022;2024-01-10T17:38:18;54.70;;;24.70;;
5821;SDS011;2937;48.562;8.022;2024-01-10T17:43:11;56.03;;;26.50;;
5821;SDS011;2937;48.562;8.022;2024-01-10T17:48:03;58.93;;;26.90;;
5821;SDS011;2937;48.562;8.022;2024-01-10T17:52:56;52.37;;;24.67;;
5821;SDS011;2937;48.562;8.022;2024-01-10T17:57:50;61.23;;;27.37;;
5821;SDS011;2937;48.562;8.022;2024-01-10T18:02:43;60.77;;;26.60;;
5821;SDS011;2937;48.562;8.022;2024-01-10T18:07:36;57.47;;;25.60;;
5821;SDS011;2937;48.562;8.022;2024-01-10T18:12:28;51.37;;;25.13;;
5821;SDS011;2937;48.562;8.022;2024-01-10T18:17:22;51.47;;;25.07;;
5821;SDS011;2937;48.562;8.022;2024-01-10T18:22:15;45.97;;;23.67;;
5821;SDS011;2937;48.562;8.022;2024-01-10T18:27:08;49.40;;;23.57;;
5821;SDS011;2937;48.562;8.022;2024-01-10T18:32:00;58.30;;;24.83;;
5821;SDS011;2937;48.562;8.022;2024-01-10T18:36:54;48.77;;;23.40;;
5821;SDS011;2937;48.562;8.022;2024-01-10T18:41:47;48.50;;;23.20;;
5821;SDS011;2937;48.562;8.022;2024-01-10T18:46:42;49.20;;;23.83;;
5821;SDS011;2937;48.562;8.022;2024-01-10T18:51:34;56.07;;;24.33;;
5821;SDS011;2937;48.562;8.022;2024-01-10T18:56:29;56.67;;;25.90;;
5821;SDS011;2937;48.562;8.022;2024-01-10T19:01:22;51.07;;;24.77;;
5821;SDS011;2937;48.562;8.022;2024-01-10T19:06:14;71.90;;;35.10;;
5821;SDS011;2937;48.562;8.022;2024-01-10T19:11:07;67.10;;;32.63;;
5821;SDS011;2937;48.562;8.022;2024-01-10T19:16:03;56.77;;;25.37;;
5821;SDS011;2937;48.562;8.022;2024-01-10T19:20:56;53.53;;;25.73;;
5821;SDS011;2937;48.562;8.022;2024-01-10T19:25:49;58.60;;;27.17;;
5821;SDS011;2937;48.562;8.022;2024-01-10T19:30:42;52.20;;;25.50;;
5821;SDS011;2937;48.562;8.022;2024-01-10T19:35:36;57.30;;;26.27;;
5821;SDS011;2937;48.562;8.022;2024-01-10T19:40:28;62.37;;;26.77;;
5821;SDS011;2937;48.562;8.022;2024-01-10T19:45:21;59.20;;;26.53;;
5821;SDS011;2937;48.562;8.022;2024-01-10T19:50:14;61.37;;;28.80;;
5821;SDS011;2937;48.562;8.022;2024-01-10T19:55:08;58.40;;;28.00;;
5821;SDS011;2937;48.562;8.022;2024-01-10T20:00:01;60.50;;;27.50;;
5821;SDS011;2937;48.562;8.022;2024-01-10T20:04:55;68.53;;;29.27;;
5821;SDS011;2937;48.562;8.022;2024-01-10T20:09:48;67.73;;;29.70;;
5821;SDS011;2937;48.562;8.022;2024-01-10T20:14:43;63.63;;;28.90;;
5821;SDS011;2937;48.562;8.022;2024-01-10T20:19:35;61.63;;;29.03;;
5821;SDS011;2937;48.562;8.022;2024-01-10T20:24:28;64.20;;;29.80;;
5821;SDS011;2937;48.562;8.022;2024-01-10T20:29:21;60.30;;;28.37;;
5821;SDS011;2937;48.562;8.022;2024-01-10T20:34:15;67.97;;;30.00;;
5821;SDS011;2937;48.562;8.022;2024-01-10T20:39:08;56.47;;;27.73;;
5821;SDS011;2937;48.562;8.022;2024-01-10T20:44:00;65.80;;;28.67;;
5821;SDS011;2937;48.562;8.022;2024-01-10T20:48:53;63.87;;;28.60;;
5821;SDS011;2937;48.562;8.022;2024-01-10T20:53:49;63.70;;;28.80;;
5821;SDS011;2937;48.562;8.022;2024-01-10T20:58:42;64.53;;;28.40;;
5821;SDS011;2937;48.562;8.022;2024-01-10T21:03:34;62.00;;;28.90;;
5821;SDS011;2937;48.562;8.022;2024-01-10T21:08:27;66.37;;;29.60;;
5821;SDS011;2937;48.562;8.022;2024-01-10T21:13:21;65.20;;;28.80;;
5821;SDS011;2937;48.562;8.022;2024-01-10T21:18:13;65.70;;;30.03;;
5821;SDS011;2937;48.562;8.022;2024-01-10T21:23:06;65.00;;;28.67;;
5821;SDS011;2937;48.562;8.022;2024-01-10T21:28:01;61.27;;;28.33;;
5821;SDS011;2937;48.562;8.022;2024-01-10T21:32:59;63.80;;;29.60;;
5821;SDS011;2937;48.562;8.022;2024-01-10T21:37:53;69.20;;;29.90;;
5821;SDS011;2937;48.562;8.022;2024-01-10T21:42:46;65.30;;;29.83;;
5821;SDS011;2937;48.562;8.022;2024-01-10T21:47:41;69.47;;;30.60;;
5821;SDS011;2937;48.562;8.022;2024-01-10T21:52:35;62.90;;;29.93;;
5821;SDS011;2937;48.562;8.022;2024-01-10T21:57:28;66.60;;;29.63;;
5821;SDS011;2937;48.562;8.022;2024-01-10T22:02:22;75.43;;;31.60;;
5821;SDS011;2937;48.562;8.022;2024-01-10T22:07:15;68.43;;;30.80;;
5821;SDS011;2937;48.562;8.022;2024-01-10T22:12:09;79.00;;;31.97;;
5821;SDS011;2937;48.562;8.022;2024-01-10T22:17:01;76.30;;;32.87;;
5821;SDS011;2937;48.562;8.022;2024-01-10T22:21:54;68.80;;;30.80;;
5821;SDS011;2937;48.562;8.022;2024-01-10T22:26:46;68.80;;;30.53;;
5821;SDS011;2937;48.562;8.022;2024-01-10T22:31:43;71.10;;;31.20;;
5821;SDS011;2937;48.562;8.022;2024-01-10T22:36:35;72.33;;;30.30;;
5821;SDS011;2937;48.562;8.022;2024-01-10T22:41:28;68.07;;;30.60;;
5821;SDS011;2937;48.562;8.022;2024-01-10T22:46:20;66.47;;;30.07;;
5821;SDS011;2937;48.562;8.022;2024-01-10T22:51:14;56.40;;;27.17;;
5821;SDS011;2937;48.562;8.022;2024-01-10T22:56:07;59.83;;;27.40;;
5821;SDS011;2937;48.562;8.022;2024-01-10T23:01:00;59.47;;;27.50;;
5821;SDS011;2937;48.562;8.022;2024-01-10T23:05:52;65.63;;;30.50;;
5821;SDS011;2937;48.562;8.022;2024-01-10T23:10:47;74.80;;;29.53;;
5821;SDS011;2937;48.562;8.022;2024-01-10T23:15:39;71.13;;;28.47;;
5821;SDS011;2937;48.562;8.022;2024-01-10T23:20:32;65.33;;;29.27;;
5821;SDS011;2937;48.562;8.022;2024-01-10T23:25:24;68.37;;;29.80;;
5821;SDS011;2937;48.562;8.022;2024-01-10T23:30:18;63.27;;;30.40;;
5821;SDS011;2937;48.562;8.022;2024-01-10T23:35:11;60.27;;;28.43;;
5821;SDS011;2937;48.562;8.022;2024-01-10T23:40:05;61.23;;;28.07;;
5821;SDS011;2937;48.562;8.022;2024-01-10T23:44:59;67.43;;;29.87;;
5821;SDS011;2937;48.562;8.022;2024-01-10T23:49:53;74.73;;;28.77;;
5821;SDS011;2937;48.562;8.022;2024-01-10T23:54:46;67.60;;;29.23;;
5821;SDS011;2937;48.562;8.022;2024-01-10T23:59:38;58.77;;;25.83;;
